Time;durP1;ratioP1;P1;durP2;ratioP2;P2;SDS_P1;SDS_P2;PMS_P1;PMS_P2;Temp;Humidity;BMP_temperature;BMP_pressure;BME280_temperature;BME280_humidity;BME280_pressure;Samples;Min_cycle;Max_cycle;Signal;HPM_P1;HPM_P2
2023/07/22 00:01:25;;;;;;;10.43;5.57;;;18.60;64.20;;;;;;5052073;28;20090;-68
2023/07/22 00:03:51;;;;;;;9.35;5.25;;;18.60;64.40;;;;;;5053101;28;20025;-68
2023/07/22 00:06:20;;;;;;;8.73;4.88;;;18.60;64.40;;;;;;5051882;28;20013;-68
2023/07/22 00:08:45;;;;;;;10.00;5.35;;;18.50;64.40;;;;;;5053049;28;20033;-67
2023/07/22 00:11:11;;;;;;;9.82;6.05;;;18.50;65.10;;;;;;5053632;28;20025;-68
2023/07/22 00:13:37;;;;;;;8.48;4.93;;;18.50;64.50;;;;;;5052472;28;20052;-67
2023/07/22 00:16:07;;;;;;;11.82;6.10;;;18.50;64.40;;;;;;5049874;28;20028;-67
2023/07/22 00:18:33;;;;;;;9.55;5.82;;;18.40;64.40;;;;;;5053800;28;20037;-68
2023/07/22 00:20:59;;;;;;;9.70;6.00;;;18.40;64.50;;;;;;5052678;28;20075;-68
2023/07/22 00:23:25;;;;;;;8.80;6.03;;;18.40;64.60;;;;;;5052886;28;20028;-68
2023/07/22 00:25:51;;;;;;;11.55;6.13;;;18.40;64.70;;;;;;5052602;28;20036;-67
2023/07/22 00:28:18;;;;;;;9.85;5.97;;;18.30;64.70;;;;;;5045118;28;20086;-68
2023/07/22 00:30:44;;;;;;;10.88;6.18;;;18.30;64.80;;;;;;5047227;28;20079;-67
2023/07/22 00:33:09;;;;;;;9.85;5.50;;;18.40;64.90;;;;;;5052899;28;20025;-68
2023/07/22 00:35:35;;;;;;;10.23;5.65;;;18.40;64.90;;;;;;5053711;28;20373;-67
2023/07/22 00:38:01;;;;;;;10.70;6.32;;;18.40;64.90;;;;;;5042211;28;20057;-68
2023/07/22 00:40:30;;;;;;;10.90;6.03;;;18.40;65.10;;;;;;5044404;28;20032;-67
2023/07/22 00:42:56;;;;;;;11.80;6.53;;;18.40;65.10;;;;;;5052552;28;20021;-68
2023/07/22 00:45:22;;;;;;;10.30;6.28;;;18.40;65.20;;;;;;5053525;28;20033;-68
2023/07/22 00:47:48;;;;;;;9.70;5.43;;;18.30;65.20;;;;;;5050414;28;20021;-67
2023/07/22 00:50:14;;;;;;;11.13;6.78;;;18.30;65.40;;;;;;5051198;28;20029;-67
2023/07/22 00:52:40;;;;;;;9.98;5.90;;;18.30;65.50;;;;;;5042275;28;20471;-67
2023/07/22 00:55:07;;;;;;;10.13;5.70;;;18.20;65.60;;;;;;5051663;28;20360;-67
2023/07/22 00:57:33;;;;;;;10.48;6.35;;;18.20;65.80;;;;;;5051640;28;20029;-67
2023/07/22 00:59:59;;;;;;;11.20;6.93;;;18.20;65.90;;;;;;5055215;28;20029;-68
2023/07/22 01:02:25;;;;;;;11.18;6.45;;;18.20;66.00;;;;;;5057367;28;20357;-67
2023/07/22 01:04:54;;;;;;;12.60;7.40;;;18.20;66.20;;;;;;5056469;28;20029;-67
2023/07/22 01:07:20;;;;;;;12.55;7.13;;;18.20;66.20;;;;;;5056719;28;20055;-67
2023/07/22 01:09:46;;;;;;;11.65;6.85;;;18.20;66.50;;;;;;5049979;28;20343;-67
2023/07/22 01:12:13;;;;;;;14.02;7.05;;;18.10;66.50;;;;;;5045483;28;20037;-68
2023/07/22 01:14:41;;;;;;;11.60;6.90;;;18.10;66.70;;;;;;5055255;28;20036;-68
2023/07/22 01:17:09;;;;;;;11.30;6.40;;;18.10;66.80;;;;;;5056814;28;20055;-67
2023/07/22 01:19:35;;;;;;;12.60;7.40;;;18.20;66.90;;;;;;5048231;28;20036;-67
2023/07/22 01:22:07;;;;;;;11.98;7.13;;;18.10;66.80;;;;;;5054621;28;20061;-67
2023/07/22 01:24:33;;;;;;;11.90;7.13;;;18.20;66.90;;;;;;5039149;28;20033;-67
2023/07/22 01:27:00;;;;;;;13.27;7.47;;;18.20;66.90;;;;;;5054664;28;20098;-67
2023/07/22 01:29:26;;;;;;;13.20;7.22;;;18.20;67.30;;;;;;5053413;28;20048;-67
2023/07/22 01:31:53;;;;;;;13.27;8.18;;;18.20;66.90;;;;;;5055193;28;20048;-67
2023/07/22 01:34:20;;;;;;;12.77;7.30;;;18.20;66.90;;;;;;5039288;28;20033;-67
2023/07/22 01:36:50;;;;;;;14.48;8.85;;;18.20;67.00;;;;;;5054396;28;20050;-67
2023/07/22 01:39:17;;;;;;;12.98;8.15;;;18.20;67.00;;;;;;5030452;28;20029;-68
2023/07/22 01:41:43;;;;;;;15.07;9.07;;;18.20;67.00;;;;;;5049579;28;20033;-67
2023/07/22 01:44:09;;;;;;;13.25;8.15;;;18.20;67.00;;;;;;5055265;28;20032;-67
2023/07/22 01:46:35;;;;;;;13.85;8.60;;;18.20;67.00;;;;;;5054088;28;20028;-67
2023/07/22 01:49:05;;;;;;;15.02;9.38;;;18.30;67.00;;;;;;5036406;28;20025;-67
2023/07/22 01:51:32;;;;;;;16.15;9.43;;;18.20;67.00;;;;;;5050817;28;20104;-67
2023/07/22 01:53:58;;;;;;;16.65;9.90;;;18.20;67.00;;;;;;5053434;28;20045;-68
2023/07/22 01:56:23;;;;;;;13.80;9.07;;;18.20;67.10;;;;;;5055629;28;20334;-68
2023/07/22 01:58:49;;;;;;;15.25;9.35;;;18.20;67.20;;;;;;5054491;28;20029;-67
2023/07/22 02:01:16;;;;;;;15.10;9.57;;;18.20;67.20;;;;;;5046442;28;20037;-67
2023/07/22 02:03:42;;;;;;;15.85;10.05;;;18.20;67.40;;;;;;5048740;28;20096;-67
2023/07/22 02:06:08;;;;;;;14.73;9.32;;;18.20;67.50;;;;;;5055161;28;20365;-67
2023/07/22 02:08:35;;;;;;;16.85;10.35;;;18.20;67.70;;;;;;5056037;28;20021;-68
2023/07/22 02:11:06;;;;;;;14.75;9.13;;;18.10;67.70;;;;;;5052246;28;20033;-68
2023/07/22 02:13:34;;;;;;;14.68;9.35;;;18.10;67.70;;;;;;5038502;28;20029;-68
2023/07/22 02:16:00;;;;;;;16.33;10.30;;;18.10;67.80;;;;;;5054481;28;20029;-67
2023/07/22 02:18:27;;;;;;;15.55;9.85;;;18.10;67.90;;;;;;5041830;28;20047;-67
2023/07/22 02:20:53;;;;;;;17.65;10.23;;;18.10;67.90;;;;;;5035757;28;20341;-67
2023/07/22 02:23:19;;;;;;;17.52;10.57;;;18.10;67.90;;;;;;5054495;28;20377;-68
2023/07/22 02:25:52;;;;;;;17.08;10.63;;;18.10;68.00;;;;;;5055581;28;20112;-68
2023/07/22 02:28:21;;;;;;;15.57;9.93;;;18.00;68.10;;;;;;5054740;28;20032;-67
2023/07/22 02:30:52;;;;;;;17.95;10.60;;;18.00;68.20;;;;;;5052560;28;20029;-67
2023/07/22 02:33:19;;;;;;;15.85;10.15;;;18.00;68.30;;;;;;5053471;28;20087;-67
2023/07/22 02:35:46;;;;;;;16.40;9.68;;;18.00;68.30;;;;;;5055170;28;20029;-67
2023/07/22 02:38:14;;;;;;;16.27;10.07;;;18.00;68.40;;;;;;5055251;28;20025;-67
2023/07/22 02:40:40;;;;;;;16.30;10.00;;;18.00;68.40;;;;;;5054287;28;20029;-68
2023/07/22 02:43:06;;;;;;;17.10;11.07;;;17.90;69.10;;;;;;5049573;28;20033;-67
2023/07/22 02:45:36;;;;;;;16.38;10.77;;;18.00;68.50;;;;;;5055353;28;20033;-68
2023/07/22 02:48:02;;;;;;;15.77;11.27;;;17.90;68.60;;;;;;5055617;28;20029;-68
2023/07/22 02:50:28;;;;;;;16.45;10.00;;;17.90;68.60;;;;;;5054280;28;20361;-68
2023/07/22 02:52:53;;;;;;;16.17;10.57;;;17.90;68.70;;;;;;5042244;28;20045;-68
2023/07/22 02:55:20;;;;;;;18.38;12.32;;;17.90;68.80;;;;;;5052052;28;20021;-68
2023/07/22 02:57:46;;;;;;;17.20;9.73;;;17.90;68.90;;;;;;5053209;28;20104;-67
2023/07/22 03:00:17;;;;;;;16.45;11.50;;;17.90;68.90;;;;;;5054214;28;20057;-67
2023/07/22 03:02:43;;;;;;;16.52;10.88;;;17.80;68.90;;;;;;5032049;28;20029;-67
2023/07/22 03:05:09;;;;;;;19.33;11.10;;;17.80;69.00;;;;;;5053608;28;20424;-67
2023/07/22 03:07:36;;;;;;;18.27;11.60;;;17.80;69.10;;;;;;5036538;28;20430;-67
2023/07/22 03:10:02;;;;;;;16.02;10.30;;;17.70;69.10;;;;;;5054532;28;20033;-67
2023/07/22 03:12:28;;;;;;;16.13;10.05;;;17.70;69.10;;;;;;5052102;28;20020;-67
2023/07/22 03:14:54;;;;;;;17.52;10.57;;;17.70;69.20;;;;;;5054197;28;20059;-67
2023/07/22 03:17:20;;;;;;;17.05;11.45;;;17.70;69.20;;;;;;5054330;28;20025;-67
2023/07/22 03:19:46;;;;;;;18.83;10.77;;;17.70;69.30;;;;;;5054526;28;20029;-67
2023/07/22 03:22:16;;;;;;;18.58;11.75;;;17.70;69.40;;;;;;5032240;28;20038;-67
2023/07/22 03:24:42;;;;;;;17.90;12.02;;;17.70;69.40;;;;;;5051774;28;20040;-67
2023/07/22 03:27:08;;;;;;;17.95;11.05;;;17.70;69.50;;;;;;5052229;28;20037;-67
2023/07/22 03:29:34;;;;;;;17.85;11.27;;;17.60;69.40;;;;;;5053561;28;20029;-67
2023/07/22 03:32:00;;;;;;;18.67;12.23;;;17.60;69.50;;;;;;5044889;28;20087;-67
2023/07/22 03:34:27;;;;;;;18.88;11.57;;;17.60;69.60;;;;;;5050085;28;20029;-67
2023/07/22 03:36:53;;;;;;;18.02;11.63;;;17.60;69.70;;;;;;5068011;28;20124;-67
2023/07/22 03:39:19;;;;;;;17.63;11.73;;;17.60;69.70;;;;;;5052914;28;20033;-67
2023/07/22 03:41:45;;;;;;;20.55;12.23;;;17.60;69.80;;;;;;5054381;28;20017;-67
2023/07/22 03:44:12;;;;;;;18.65;12.70;;;17.50;69.80;;;;;;5051002;28;20090;-67
2023/07/22 03:46:38;;;;;;;17.45;12.18;;;17.60;69.90;;;;;;5052220;28;20036;-67
2023/07/22 03:49:04;;;;;;;18.38;11.98;;;17.60;70.60;;;;;;5052424;28;20033;-67
2023/07/22 03:51:30;;;;;;;20.40;12.27;;;17.60;70.00;;;;;;5052990;28;20373;-67
2023/07/22 03:53:57;;;;;;;18.80;12.00;;;17.60;70.00;;;;;;5040879;28;20095;-67
2023/07/22 03:56:25;;;;;;;17.10;11.55;;;17.60;70.10;;;;;;5046646;28;20029;-68
2023/07/22 03:58:52;;;;;;;20.33;13.45;;;17.60;70.10;;;;;;5053721;28;20426;-67
2023/07/22 04:01:18;;;;;;;18.52;11.85;;;17.60;70.10;;;;;;5053017;28;20100;-67
2023/07/22 04:03:44;;;;;;;19.90;12.18;;;17.60;70.20;;;;;;5045233;28;20025;-67
2023/07/22 04:06:10;;;;;;;19.02;12.55;;;17.60;70.30;;;;;;5042246;28;20025;-67
2023/07/22 04:08:36;;;;;;;20.00;12.38;;;17.60;70.30;;;;;;5041755;28;20461;-67
2023/07/22 04:11:02;;;;;;;17.92;11.70;;;17.60;70.30;;;;;;5042901;28;20511;-67
2023/07/22 04:13:28;;;;;;;19.58;11.25;;;17.60;70.30;;;;;;5043328;28;20033;-67
2023/07/22 04:15:54;;;;;;;20.25;12.38;;;17.60;70.40;;;;;;5045689;28;20084;-67
2023/07/22 04:18:20;;;;;;;18.80;12.20;;;17.60;71.10;;;;;;5044995;28;20068;-67
2023/07/22 04:20:50;;;;;;;18.00;11.70;;;17.60;70.40;;;;;;5046806;28;20022;-67
2023/07/22 04:23:16;;;;;;;23.10;12.52;;;17.60;70.40;;;;;;5044731;28;20511;-67
2023/07/22 04:25:44;;;;;;;20.33;12.25;;;17.60;70.50;;;;;;5040949;28;20036;-67
2023/07/22 04:28:10;;;;;;;18.35;12.13;;;17.60;70.50;;;;;;5041273;28;20025;-67
2023/07/22 04:30:37;;;;;;;20.65;11.05;;;17.60;70.60;;;;;;5044960;28;20029;-67
2023/07/22 04:33:05;;;;;;;20.38;12.00;;;17.60;70.60;;;;;;5042758;28;20120;-67
2023/07/22 04:35:37;;;;;;;19.88;11.55;;;17.60;70.70;;;;;;5034989;28;20358;-67
2023/07/22 04:38:04;;;;;;;17.90;11.32;;;17.60;70.80;;;;;;5043222;28;20116;-67
2023/07/22 04:40:30;;;;;;;18.88;11.95;;;17.60;70.80;;;;;;5035455;28;20033;-67
2023/07/22 04:42:57;;;;;;;23.50;13.00;;;17.60;70.80;;;;;;5058012;28;20036;-67
2023/07/22 04:45:25;;;;;;;20.10;11.85;;;17.70;70.90;;;;;;5055251;28;20111;-67
2023/07/22 04:47:51;;;;;;;21.50;12.55;;;17.70;70.80;;;;;;5052110;28;20086;-67
2023/07/22 04:50:17;;;;;;;19.30;12.05;;;17.70;70.80;;;;;;5057867;28;20029;-67
2023/07/22 04:52:47;;;;;;;21.77;13.38;;;17.80;70.80;;;;;;5057473;28;20029;-67
2023/07/22 04:55:13;;;;;;;20.10;12.80;;;17.80;70.80;;;;;;5054795;28;20037;-67
2023/07/22 04:57:45;;;;;;;19.60;12.27;;;17.80;70.80;;;;;;5047965;28;20021;-67
2023/07/22 05:00:18;;;;;;;19.77;11.15;;;17.80;70.80;;;;;;5050480;28;20033;-67
2023/07/22 05:02:45;;;;;;;20.42;11.65;;;17.80;70.80;;;;;;5044777;28;20033;-67
2023/07/22 05:05:12;;;;;;;22.58;12.93;;;17.90;70.90;;;;;;5051873;28;20120;-67
2023/07/22 05:07:38;;;;;;;19.17;12.23;;;17.90;70.80;;;;;;5052612;28;20025;-67
2023/07/22 05:10:04;;;;;;;17.95;12.00;;;17.90;70.80;;;;;;5053262;28;20086;-66
2023/07/22 05:12:30;;;;;;;19.70;13.02;;;17.90;70.70;;;;;;5055340;28;20120;-66
2023/07/22 05:14:56;;;;;;;21.90;12.65;;;18.00;70.60;;;;;;5054767;28;20108;-66
2023/07/22 05:17:21;;;;;;;21.80;13.02;;;18.00;70.60;;;;;;5049110;28;20021;-66
2023/07/22 05:19:48;;;;;;;19.02;12.20;;;18.10;70.40;;;;;;5052970;28;20407;-66
2023/07/22 05:22:14;;;;;;;21.98;13.05;;;18.10;70.30;;;;;;5056985;28;20337;-65
2023/07/22 05:24:40;;;;;;;20.83;12.75;;;18.10;70.20;;;;;;5056016;28;20099;-65
2023/07/22 05:27:06;;;;;;;21.27;12.40;;;18.20;70.20;;;;;;5055923;28;20036;-65
2023/07/22 05:29:32;;;;;;;23.02;13.52;;;18.20;70.00;;;;;;5046072;28;20039;-65
2023/07/22 05:31:57;;;;;;;20.95;13.10;;;18.20;70.00;;;;;;5044612;28;20086;-65
2023/07/22 05:34:23;;;;;;;19.83;13.80;;;18.20;70.00;;;;;;5055824;28;20025;-65
2023/07/22 05:36:49;;;;;;;21.88;13.80;;;18.20;70.10;;;;;;5057005;28;20339;-65
2023/07/22 05:39:17;;;;;;;20.42;13.25;;;18.20;69.90;;;;;;5052535;28;20029;-66
2023/07/22 05:41:43;;;;;;;20.15;12.77;;;18.20;69.80;;;;;;5042337;28;20402;-66
2023/07/22 05:44:09;;;;;;;22.77;12.80;;;18.30;69.60;;;;;;5056930;28;20028;-66
2023/07/22 05:46:34;;;;;;;20.33;13.38;;;18.40;69.60;;;;;;5052381;28;20032;-66
2023/07/22 05:49:00;;;;;;;20.13;13.10;;;18.50;69.40;;;;;;5047399;28;20026;-66
2023/07/22 05:51:26;;;;;;;21.65;13.82;;;18.50;69.30;;;;;;5050942;28;20028;-66
2023/07/22 05:53:52;;;;;;;23.55;14.32;;;18.60;69.20;;;;;;5053307;28;20045;-66
2023/07/22 05:56:17;;;;;;;19.73;13.32;;;18.70;69.10;;;;;;5051029;28;20040;-66
2023/07/22 05:58:43;;;;;;;22.77;13.05;;;18.70;69.00;;;;;;5050553;28;20025;-66
2023/07/22 06:01:11;;;;;;;21.60;13.75;;;18.70;69.00;;;;;;5055108;28;20028;-66
2023/07/22 06:03:37;;;;;;;21.00;12.40;;;18.70;69.10;;;;;;5045981;28;20024;-66
2023/07/22 06:06:04;;;;;;;21.92;13.13;;;18.80;68.90;;;;;;5052873;28;20354;-66
2023/07/22 06:08:29;;;;;;;20.80;13.02;;;18.90;68.90;;;;;;5051194;28;20082;-66
2023/07/22 06:10:56;;;;;;;23.35;13.48;;;18.90;68.70;;;;;;5050520;28;20033;-66
2023/07/22 06:13:22;;;;;;;21.13;12.68;;;19.10;68.40;;;;;;5054221;28;20392;-66
2023/07/22 06:15:48;;;;;;;22.80;13.48;;;19.20;68.10;;;;;;5052979;28;20025;-66
2023/07/22 06:18:13;;;;;;;21.02;12.70;;;19.30;67.70;;;;;;5048067;28;20032;-66
2023/07/22 06:20:39;;;;;;;18.67;13.27;;;19.40;67.60;;;;;;5047207;28;20078;-66
2023/07/22 06:23:05;;;;;;;21.85;13.60;;;19.40;67.50;;;;;;5054101;28;20063;-65
2023/07/22 06:25:31;;;;;;;21.52;12.75;;;19.40;67.30;;;;;;5050267;28;20485;-66
2023/07/22 06:27:57;;;;;;;19.27;12.65;;;19.40;67.40;;;;;;5046201;28;20025;-66
2023/07/22 06:30:23;;;;;;;19.88;12.38;;;19.40;67.40;;;;;;5053055;28;20025;-66
2023/07/22 06:32:48;;;;;;;20.00;12.85;;;19.40;67.50;;;;;;5047925;28;20060;-65
2023/07/22 06:35:14;;;;;;;18.95;12.23;;;19.40;67.80;;;;;;5050638;28;20020;-66
2023/07/22 06:37:40;;;;;;;21.45;13.35;;;19.30;67.80;;;;;;5050871;28;20411;-66
2023/07/22 06:40:06;;;;;;;20.30;12.95;;;19.40;67.70;;;;;;5050209;28;20350;-66
2023/07/22 06:42:32;;;;;;;22.23;13.70;;;19.50;67.60;;;;;;5050328;28;20048;-66
2023/07/22 06:44:58;;;;;;;22.52;12.50;;;19.50;67.40;;;;;;5048489;28;20020;-66
2023/07/22 06:47:24;;;;;;;18.83;12.27;;;19.50;67.30;;;;;;5047692;28;20381;-67
2023/07/22 06:49:50;;;;;;;20.38;12.50;;;19.60;67.10;;;;;;5047162;28;20029;-66
2023/07/22 06:52:16;;;;;;;23.10;13.65;;;19.70;67.10;;;;;;5054398;28;20328;-67
2023/07/22 06:54:42;;;;;;;19.40;11.63;;;19.80;67.00;;;;;;5054709;28;20497;-67
2023/07/22 06:57:08;;;;;;;19.73;12.15;;;19.80;66.80;;;;;;5055003;28;20017;-67
2023/07/22 06:59:34;;;;;;;21.88;12.40;;;19.90;66.80;;;;;;5052487;28;20205;-67
2023/07/22 07:02:00;;;;;;;19.00;11.98;;;19.90;66.50;;;;;;5055118;28;20116;-67
2023/07/22 07:04:26;;;;;;;20.33;11.75;;;20.10;66.40;;;;;;5053962;28;20492;-67
2023/07/22 07:06:52;;;;;;;16.98;11.45;;;20.20;66.00;;;;;;5039992;28;20059;-67
2023/07/22 07:09:17;;;;;;;19.13;11.40;;;20.30;65.80;;;;;;5049961;28;20033;-67
2023/07/22 07:11:44;;;;;;;17.48;11.13;;;20.30;65.60;;;;;;5049767;28;20445;-67
2023/07/22 07:14:09;;;;;;;20.35;12.45;;;20.30;65.50;;;;;;5053008;28;20092;-66
2023/07/22 07:16:35;;;;;;;19.83;11.60;;;20.30;65.50;;;;;;5045622;28;20514;-67
2023/07/22 07:19:02;;;;;;;17.83;11.93;;;20.20;65.70;;;;;;5052961;28;20074;-67
2023/07/22 07:21:28;;;;;;;18.27;11.60;;;20.20;65.90;;;;;;5045808;28;20371;-67
2023/07/22 07:23:54;;;;;;;19.42;11.88;;;20.20;66.10;;;;;;5041261;28;20029;-67
2023/07/22 07:26:21;;;;;;;17.50;11.25;;;20.20;66.10;;;;;;5030041;28;20030;-67
2023/07/22 07:28:49;;;;;;;18.98;11.27;;;20.20;66.10;;;;;;5048422;28;20476;-67
2023/07/22 07:31:14;;;;;;;15.63;10.60;;;20.30;65.90;;;;;;5045160;28;20346;-67
2023/07/22 07:33:40;;;;;;;17.33;10.75;;;20.50;65.60;;;;;;5053468;28;20056;-67
2023/07/22 07:36:06;;;;;;;18.52;10.70;;;20.60;65.20;;;;;;5054651;28;20032;-67
2023/07/22 07:38:32;;;;;;;16.33;10.02;;;20.60;65.00;;;;;;5054476;28;20036;-67
2023/07/22 07:41:00;;;;;;;15.75;9.90;;;20.70;65.60;;;;;;5051063;28;20361;-68
2023/07/22 07:43:27;;;;;;;18.55;10.43;;;20.90;64.50;;;;;;5053757;28;20033;-68
2023/07/22 07:46:12;;;;;;;15.60;10.07;;;21.10;63.90;;;;;;5051991;28;20048;-66
2023/07/22 07:48:38;;;;;;;19.08;9.85;;;21.20;63.70;;;;;;5051179;28;20357;-67
2023/07/22 07:51:04;;;;;;;15.50;10.32;;;21.20;63.60;;;;;;5051914;28;20028;-67
2023/07/22 07:53:29;;;;;;;15.10;9.32;;;21.20;63.60;;;;;;5050116;28;20029;-66
2023/07/22 07:55:55;;;;;;;17.25;9.15;;;21.30;63.60;;;;;;5045024;28;20025;-69
2023/07/22 07:58:21;;;;;;;14.48;9.32;;;21.50;63.20;;;;;;5046556;28;20405;-68
2023/07/22 08:00:46;;;;;;;17.80;9.40;;;21.70;62.80;;;;;;5048667;28;20111;-67
2023/07/22 08:03:12;;;;;;;13.77;8.38;;;22.00;62.40;;;;;;5043072;28;20025;-67
2023/07/22 08:05:39;;;;;;;14.20;8.70;;;22.20;61.70;;;;;;5044890;28;20447;-67
2023/07/22 08:08:05;;;;;;;13.07;7.78;;;22.40;61.10;;;;;;5040687;28;20029;-66
2023/07/22 08:10:31;;;;;;;13.02;7.60;;;22.50;60.70;;;;;;5052199;28;20033;-67
2023/07/22 08:12:56;;;;;;;11.75;7.60;;;22.60;60.20;;;;;;5046930;28;20073;-68
2023/07/22 08:15:22;;;;;;;13.25;7.40;;;22.50;59.90;;;;;;5047371;28;20029;-68
2023/07/22 08:17:48;;;;;;;11.77;7.55;;;22.50;60.00;;;;;;5035012;28;20430;-67
2023/07/22 08:20:13;;;;;;;12.30;7.50;;;22.30;60.10;;;;;;5038507;28;20033;-66
2023/07/22 08:22:39;;;;;;;13.55;7.45;;;22.20;60.00;;;;;;5040245;28;20029;-68
2023/07/22 08:25:05;;;;;;;11.98;6.85;;;22.20;60.30;;;;;;5047825;28;20043;-67
2023/07/22 08:27:31;;;;;;;13.23;7.07;;;22.10;60.40;;;;;;5042652;28;20064;-68
2023/07/22 08:29:57;;;;;;;12.88;7.53;;;22.10;60.40;;;;;;5042719;28;20101;-67
2023/07/22 08:32:22;;;;;;;14.55;7.38;;;22.10;61.10;;;;;;5041577;28;20029;-66
2023/07/22 08:34:48;;;;;;;14.35;7.53;;;22.10;60.30;;;;;;5046500;28;20083;-69
2023/07/22 08:37:14;;;;;;;13.32;7.45;;;22.10;60.20;;;;;;5046870;28;20079;-66
2023/07/22 08:39:40;;;;;;;13.70;7.35;;;22.10;59.80;;;;;;5043881;28;20029;-67
2023/07/22 08:42:07;;;;;;;11.95;7.07;;;22.00;59.70;;;;;;5048763;28;20108;-67
2023/07/22 08:44:36;;;;;;;11.27;6.25;;;21.90;59.70;;;;;;5042258;28;20033;-67
2023/07/22 08:47:06;;;;;;;11.57;7.13;;;21.90;59.80;;;;;;5046811;28;20053;-67
2023/07/22 08:49:32;;;;;;;14.18;7.90;;;21.90;59.90;;;;;;5050375;28;20106;-67
2023/07/22 08:52:00;;;;;;;11.75;7.03;;;21.90;59.80;;;;;;5044114;28;20473;-67
2023/07/22 08:54:27;;;;;;;13.18;7.88;;;21.90;59.70;;;;;;5038222;28;20040;-68
2023/07/22 08:56:53;;;;;;;12.20;8.05;;;22.00;59.70;;;;;;5047473;28;20060;-67
2023/07/22 08:59:20;;;;;;;14.13;7.22;;;22.00;59.60;;;;;;5039027;28;20021;-68
2023/07/22 09:01:48;;;;;;;13.57;7.82;;;22.00;59.30;;;;;;5048831;28;20025;-68
2023/07/22 09:04:14;;;;;;;16.20;8.07;;;22.10;59.40;;;;;;5043268;28;20059;-66
2023/07/22 09:06:41;;;;;;;11.38;6.97;;;22.10;59.50;;;;;;5046164;28;20086;-67
2023/07/22 09:09:08;;;;;;;11.88;7.40;;;22.20;59.50;;;;;;5041377;28;20373;-69
2023/07/22 09:11:35;;;;;;;11.98;7.57;;;22.20;59.30;;;;;;5042078;28;20056;-69
2023/07/22 09:14:04;;;;;;;11.35;6.72;;;22.20;59.00;;;;;;5043011;28;20057;-69
2023/07/22 09:16:31;;;;;;;13.57;7.70;;;22.10;58.90;;;;;;5044942;28;20044;-67
2023/07/22 09:18:59;;;;;;;11.20;7.05;;;22.10;59.00;;;;;;5023705;28;20043;-68
2023/07/22 09:21:25;;;;;;;10.25;6.03;;;22.10;58.90;;;;;;5044492;28;20059;-69
2023/07/22 09:23:51;;;;;;;12.20;6.28;;;22.10;58.90;;;;;;5033146;28;20114;-69
2023/07/22 09:26:18;;;;;;;11.35;5.85;;;22.10;58.70;;;;;;5031073;28;20533;-69
2023/07/22 09:28:54;;;;;;;11.00;6.32;;;22.20;58.60;;;;;;5051684;28;20052;-68
2023/07/22 09:31:22;;;;;;;10.52;5.75;;;22.20;58.40;;;;;;5047507;28;20366;-69
2023/07/22 09:33:47;;;;;;;11.88;6.13;;;22.20;58.40;;;;;;5046205;28;20032;-68
2023/07/22 09:36:13;;;;;;;10.25;6.10;;;22.10;58.40;;;;;;5044714;28;20021;-68
2023/07/22 09:38:39;;;;;;;11.90;5.82;;;22.10;58.50;;;;;;5055295;28;20049;-66
2023/07/22 09:41:06;;;;;;;10.88;5.35;;;22.10;58.40;;;;;;5055582;28;20029;-68
2023/07/22 09:43:31;;;;;;;10.57;5.35;;;22.10;58.30;;;;;;5055404;28;20407;-68
2023/07/22 09:46:09;;;;;;;8.95;5.00;;;22.10;58.10;;;;;;5045259;28;20068;-66
2023/07/22 09:48:43;;;;;;;11.00;4.80;;;22.20;57.90;;;;;;5056206;28;20472;-67
2023/07/22 09:51:16;;;;;;;10.05;4.85;;;22.20;57.70;;;;;;5044388;28;20034;-67
2023/07/22 09:53:59;;;;;;;9.40;4.57;;;22.30;57.40;;;;;;5053401;28;20033;-68
2023/07/22 09:56:25;;;;;;;9.65;4.55;;;22.40;57.40;;;;;;5064064;28;20056;-68
2023/07/22 09:58:52;;;;;;;9.95;4.75;;;22.70;57.10;;;;;;5049606;28;20113;-67
2023/07/22 10:01:22;;;;;;;7.72;3.75;;;22.80;56.60;;;;;;5041426;28;20033;-67
2023/07/22 10:03:56;;;;;;;8.82;4.38;;;23.00;56.30;;;;;;5052628;28;20090;-67
2023/07/22 10:06:28;;;;;;;7.35;3.65;;;23.10;56.00;;;;;;5057388;28;20025;-67
2023/07/22 10:08:56;;;;;;;8.25;4.40;;;23.10;55.70;;;;;;5054135;28;20066;-67
2023/07/22 10:11:24;;;;;;;8.52;4.45;;;23.10;55.60;;;;;;5047591;28;20048;-67
2023/07/22 10:13:50;;;;;;;8.38;4.22;;;23.10;55.40;;;;;;5054760;28;20414;-68
2023/07/22 10:16:16;;;;;;;8.75;4.05;;;23.00;55.40;;;;;;5052998;28;20096;-67
2023/07/22 10:18:44;;;;;;;8.45;4.22;;;23.00;55.40;;;;;;5053820;28;20029;-67
2023/07/22 10:21:11;;;;;;;7.63;3.85;;;23.00;55.40;;;;;;5045456;28;20100;-68
2023/07/22 10:23:38;;;;;;;8.55;3.63;;;23.00;55.40;;;;;;5047451;28;20116;-67
2023/07/22 10:26:05;;;;;;;8.45;3.88;;;23.00;55.30;;;;;;5034660;28;20040;-66
2023/07/22 10:28:32;;;;;;;10.82;4.15;;;23.00;55.20;;;;;;5046281;28;20029;-66
2023/07/22 10:30:58;;;;;;;7.30;3.75;;;23.00;55.10;;;;;;5041805;28;20116;-66
2023/07/22 10:33:25;;;;;;;8.73;4.45;;;23.00;55.20;;;;;;5052805;28;20438;-66
2023/07/22 10:36:05;;;;;;;7.47;4.25;;;23.00;55.10;;;;;;5047045;28;20539;-68
2023/07/22 10:38:32;;;;;;;8.75;4.03;;;23.10;54.90;;;;;;5043711;28;20028;-67
2023/07/22 10:40:58;;;;;;;8.48;3.95;;;23.20;54.80;;;;;;5041922;28;20083;-67
2023/07/22 10:43:33;;;;;;;7.88;4.20;;;23.20;54.60;;;;;;5052972;28;20025;-65
2023/07/22 10:46:13;;;;;;;8.05;3.97;;;23.30;54.40;;;;;;5053429;28;20365;-66
2023/07/22 10:48:41;;;;;;;10.27;4.03;;;23.30;54.20;;;;;;5047848;28;20030;-66
2023/07/22 10:51:12;;;;;;;7.15;3.92;;;23.30;54.10;;;;;;5044181;28;20029;-67
2023/07/22 10:53:50;;;;;;;7.00;3.90;;;23.30;54.10;;;;;;5050641;28;20154;-67
2023/07/22 10:56:19;;;;;;;9.00;3.70;;;23.40;54.20;;;;;;5045020;28;20114;-67
2023/07/22 10:58:45;;;;;;;7.07;3.70;;;23.40;53.90;;;;;;5041244;28;20030;-68
2023/07/22 11:01:27;;;;;;;9.75;4.20;;;23.40;53.80;;;;;;5042435;28;20044;-67
2023/07/22 11:04:14;;;;;;;8.80;3.63;;;23.30;53.50;;;;;;5047144;28;20033;-67
2023/07/22 11:07:04;;;;;;;8.15;3.80;;;23.20;53.70;;;;;;5034254;28;20092;-67
2023/07/22 11:09:30;;;;;;;7.55;3.72;;;23.10;54.00;;;;;;5003000;28;20157;-67
2023/07/22 11:12:16;;;;;;;7.65;3.90;;;23.00;54.50;;;;;;5052382;28;20502;-67
2023/07/22 11:14:46;;;;;;;7.70;3.70;;;22.90;54.20;;;;;;5036519;28;20457;-67
2023/07/22 11:17:12;;;;;;;8.10;3.83;;;22.80;54.10;;;;;;5045534;28;20041;-67
2023/07/22 11:19:38;;;;;;;8.80;3.85;;;22.70;54.40;;;;;;5046834;28;20047;-67
2023/07/22 11:22:05;;;;;;;8.45;3.75;;;22.60;54.60;;;;;;5051351;28;20458;-67
2023/07/22 11:24:35;;;;;;;6.80;3.60;;;22.50;54.60;;;;;;5050033;28;20354;-67
2023/07/22 11:27:08;;;;;;;8.23;3.75;;;22.40;54.50;;;;;;5053722;28;20065;-67
2023/07/22 11:29:34;;;;;;;8.23;3.40;;;22.30;54.60;;;;;;5048246;28;20071;-67
2023/07/22 11:32:01;;;;;;;8.77;3.60;;;22.30;54.70;;;;;;5032578;28;20442;-67
2023/07/22 11:34:27;;;;;;;7.30;3.70;;;22.20;54.80;;;;;;5053695;28;20382;-67
2023/07/22 11:36:54;;;;;;;7.70;3.78;;;22.20;55.00;;;;;;5054577;28;20028;-67
2023/07/22 11:39:23;;;;;;;7.95;4.40;;;22.10;55.20;;;;;;5036955;28;20410;-67
2023/07/22 11:41:50;;;;;;;7.55;3.55;;;22.10;55.50;;;;;;5040686;28;20498;-67
2023/07/22 11:44:17;;;;;;;7.72;3.80;;;22.00;55.70;;;;;;5043845;28;20037;-67
2023/07/22 11:47:09;;;;;;;7.72;3.28;;;22.00;55.80;;;;;;5049920;28;20035;-67
2023/07/22 11:49:35;;;;;;;;;;;22.00;55.80;;;;;;5054705;28;20039;-67
2023/07/22 11:52:01;;;;;;;7.20;3.15;;;22.00;55.80;;;;;;5035332;28;19909;-67
2023/07/22 11:54:28;;;;;;;6.43;3.15;;;22.10;55.60;;;;;;5054473;28;20131;-67
2023/07/22 11:56:56;;;;;;;6.97;3.20;;;22.10;55.40;;;;;;5054020;28;20434;-67
2023/07/22 11:59:46;;;;;;;6.57;3.03;;;22.10;55.30;;;;;;5054424;28;20175;-67
2023/07/22 12:02:17;;;;;;;6.60;2.97;;;22.10;55.30;;;;;;5050491;28;20040;-67
2023/07/22 12:04:50;;;;;;;7.65;2.72;;;22.00;55.40;;;;;;5053285;28;20056;-67
2023/07/22 12:07:27;;;;;;;7.25;3.20;;;22.00;55.30;;;;;;5052421;28;20067;-67
2023/07/22 12:09:54;;;;;;;6.95;3.03;;;21.90;55.30;;;;;;5054081;28;20045;-67
2023/07/22 12:12:20;;;;;;;8.82;3.33;;;21.80;55.50;;;;;;5054079;28;20021;-68
2023/07/22 12:14:46;;;;;;;8.27;2.97;;;21.80;55.90;;;;;;5053091;28;20025;-68
2023/07/22 12:17:11;;;;;;;6.95;2.65;;;21.80;56.10;;;;;;5050945;28;20029;-68
2023/07/22 12:19:37;;;;;;;7.70;3.13;;;21.90;56.80;;;;;;5054098;28;20033;-67
2023/07/22 12:22:03;;;;;;;5.47;2.70;;;22.10;55.80;;;;;;5053787;28;20021;-67
2023/07/22 12:24:30;;;;;;;7.80;2.88;;;22.30;55.40;;;;;;5047454;28;20022;-67
2023/07/22 12:26:55;;;;;;;7.43;2.85;;;22.50;55.20;;;;;;5052684;28;20508;-67
2023/07/22 12:29:25;;;;;;;6.25;2.53;;;22.70;54.90;;;;;;5052702;28;20017;-67
2023/07/22 12:31:52;;;;;;;6.10;2.63;;;22.70;54.50;;;;;;5052758;28;20017;-67
2023/07/22 12:34:17;;;;;;;6.07;2.45;;;22.70;54.30;;;;;;5053091;28;20083;-67
2023/07/22 12:36:43;;;;;;;5.10;2.47;;;22.70;54.50;;;;;;5051757;28;20442;-67